createdAt,value
2018-08-22T00:02:04.210Z,2.80
2018-08-22T00:04:32.594Z,5.27
2018-08-22T00:07:00.996Z,5.17
2018-08-22T00:09:29.372Z,3.40
2018-08-22T00:11:57.774Z,2.93
2018-08-22T00:14:26.174Z,4.37
2018-08-22T00:16:54.554Z,3.93
2018-08-22T00:19:22.949Z,2.03
2018-08-22T00:21:51.347Z,2.07
2018-08-22T00:24:19.774Z,3.30
2018-08-22T00:26:48.145Z,2.67
2018-08-22T00:29:16.652Z,2.17
2018-08-22T00:31:44.942Z,5.60
2018-08-22T00:34:13.326Z,3.50
2018-08-22T00:36:41.727Z,2.57
2018-08-22T00:39:10.107Z,4.17
2018-08-22T00:41:38.507Z,2.50
2018-08-22T00:44:06.959Z,4.50
2018-08-22T00:46:35.350Z,2.70
2018-08-22T00:49:03.766Z,2.93
2018-08-22T00:51:32.200Z,3.77
2018-08-22T00:54:00.574Z,4.63
2018-08-22T00:56:28.951Z,2.70
2018-08-22T00:58:57.351Z,2.57
2018-08-22T01:01:25.735Z,2.40
2018-08-22T01:03:54.131Z,2.70
2018-08-22T01:06:22.518Z,4.17
2018-08-22T01:08:50.922Z,2.27
2018-08-22T01:11:19.318Z,1.87
2018-08-22T01:13:47.710Z,6.63
2018-08-22T01:16:16.091Z,4.83
2018-08-22T01:18:44.498Z,3.63
2018-08-22T01:21:12.878Z,2.50
2018-08-22T01:23:41.281Z,2.40
2018-08-22T01:26:09.659Z,3.07
2018-08-22T01:28:38.064Z,4.67
2018-08-22T01:31:06.450Z,3.03
2018-08-22T01:33:34.954Z,2.00
2018-08-22T01:36:03.342Z,2.13
2018-08-22T01:38:31.746Z,2.83
2018-08-22T01:41:00.138Z,2.83
2018-08-22T01:43:28.535Z,3.60
2018-08-22T01:45:56.913Z,4.03
2018-08-22T01:48:25.305Z,4.60
2018-08-22T01:50:53.711Z,2.80
2018-08-22T01:53:22.109Z,2.37
2018-08-22T01:55:50.543Z,3.40
2018-08-22T01:58:18.956Z,2.07
2018-08-22T02:00:47.314Z,3.57
2018-08-22T02:03:15.711Z,4.00
2018-08-22T02:05:44.104Z,2.70
2018-08-22T02:08:12.540Z,2.87
2018-08-22T02:10:40.941Z,3.30
2018-08-22T02:13:09.386Z,3.40
2018-08-22T02:15:37.762Z,2.20
2018-08-22T02:18:06.170Z,2.57
2018-08-22T02:20:34.575Z,2.90
2018-08-22T02:23:02.971Z,2.63
2018-08-22T02:25:31.384Z,2.90
2018-08-22T02:27:59.751Z,5.77
2018-08-22T02:30:28.139Z,2.63
2018-08-22T02:32:56.542Z,3.53
2018-08-22T02:35:24.943Z,3.70
2018-08-22T02:37:53.569Z,5.87
2018-08-22T02:40:22.032Z,6.83
2018-08-22T02:42:50.444Z,1.93
2018-08-22T02:45:18.851Z,2.37
2018-08-22T02:47:47.256Z,2.80
2018-08-22T02:50:15.674Z,3.63
2018-08-22T02:52:44.062Z,4.83
2018-08-22T02:55:12.455Z,5.90
2018-08-22T02:57:40.850Z,4.07
2018-08-22T03:00:09.254Z,2.27
2018-08-22T03:02:37.650Z,3.87
2018-08-22T03:05:06.052Z,4.13
2018-08-22T03:07:34.445Z,4.57
2018-08-22T03:10:02.835Z,4.67
2018-08-22T03:12:31.461Z,2.73
2018-08-22T03:14:59.932Z,3.83
2018-08-22T03:17:28.319Z,3.70
2018-08-22T03:19:56.748Z,6.73
2018-08-22T03:22:25.134Z,3.33
2018-08-22T03:24:53.519Z,2.60
2018-08-22T03:27:21.911Z,3.57
2018-08-22T03:29:50.504Z,4.97
2018-08-22T03:32:18.906Z,6.37
2018-08-22T03:34:47.304Z,5.23
2018-08-22T03:37:15.817Z,2.93
2018-08-22T03:39:44.212Z,3.97
2018-08-22T03:42:12.603Z,3.73
2018-08-22T03:44:41.005Z,2.83
2018-08-22T03:47:09.397Z,4.73
2018-08-22T03:49:38.027Z,3.93
2018-08-22T03:52:06.511Z,2.50
2018-08-22T03:54:34.911Z,3.57
2018-08-22T03:57:03.404Z,2.30
2018-08-22T03:59:31.786Z,6.43
2018-08-22T04:02:00.191Z,2.90
2018-08-22T04:04:28.592Z,2.93
2018-08-22T04:06:56.981Z,4.03
2018-08-22T04:09:25.584Z,2.47
2018-08-22T04:11:54.070Z,3.27
2018-08-22T04:14:22.466Z,3.63
2018-08-22T04:16:50.863Z,2.33
2018-08-22T04:19:19.260Z,4.60
2018-08-22T04:21:47.637Z,3.80
2018-08-22T04:24:16.007Z,4.57
2018-08-22T04:26:44.408Z,4.17
2018-08-22T04:29:12.788Z,4.83
2018-08-22T04:31:41.244Z,2.93
2018-08-22T04:34:09.635Z,3.20
2018-08-22T04:36:38.015Z,4.43
2018-08-22T04:39:06.403Z,4.97
2018-08-22T04:41:34.816Z,7.13
2018-08-22T04:44:03.202Z,2.43
2018-08-22T04:46:31.842Z,6.50
2018-08-22T04:49:00.258Z,3.43
2018-08-22T04:51:28.663Z,5.87
2018-08-22T04:53:57.050Z,2.00
2018-08-22T04:56:25.506Z,3.20
2018-08-22T04:58:53.856Z,2.47
2018-08-22T05:01:22.249Z,3.57
2018-08-22T05:03:50.647Z,3.80
2018-08-22T05:06:19.182Z,9.23
2018-08-22T05:08:47.559Z,3.40
2018-08-22T05:11:15.976Z,2.83
2018-08-22T05:13:44.387Z,6.67
2018-08-22T05:16:12.783Z,3.97
2018-08-22T05:18:41.175Z,2.90
2018-08-22T05:21:14.632Z,3.37
2018-08-22T05:23:43.019Z,3.80
2018-08-22T05:26:11.414Z,6.57
2018-08-22T05:28:39.811Z,6.57
2018-08-22T05:31:08.217Z,4.00
2018-08-22T05:33:36.602Z,3.00
2018-08-22T05:36:05.114Z,2.27
2018-08-22T05:38:33.515Z,3.53
2018-08-22T05:41:01.897Z,3.40
2018-08-22T05:43:30.274Z,5.47
2018-08-22T05:45:58.682Z,4.43
2018-08-22T05:48:27.060Z,3.07
2018-08-22T05:50:55.443Z,3.80
2018-08-22T05:53:23.830Z,7.80
2018-08-22T05:55:52.228Z,7.60
2018-08-22T05:58:20.589Z,4.73
2018-08-22T06:00:49.002Z,3.87
2018-08-22T06:03:17.441Z,5.07
2018-08-22T06:05:45.794Z,4.30
2018-08-22T06:08:14.189Z,3.30
2018-08-22T06:10:42.577Z,3.27
2018-08-22T06:13:11.019Z,5.57
2018-08-22T06:15:39.428Z,8.33
2018-08-22T06:18:07.788Z,3.17
2018-08-22T06:20:36.191Z,8.87
2018-08-22T06:23:04.595Z,4.93
2018-08-22T06:25:33.061Z,4.87
2018-08-22T06:28:01.595Z,4.70
2018-08-22T06:30:30.338Z,3.00
2018-08-22T06:32:58.793Z,4.80
2018-08-22T06:35:27.236Z,5.80
2018-08-22T06:37:56.499Z,4.13
2018-08-22T06:40:25.250Z,3.73
2018-08-22T06:42:53.747Z,4.33
2018-08-22T06:45:22.151Z,7.33
2018-08-22T06:47:50.572Z,2.97
2018-08-22T06:50:19.043Z,3.63
2018-08-22T06:52:47.380Z,5.57
2018-08-22T06:55:16.023Z,4.00
2018-08-22T06:57:44.773Z,2.87
2018-08-22T07:00:13.510Z,6.05
2018-08-22T07:02:42.227Z,4.67
2018-08-22T07:05:10.911Z,7.17
2018-08-22T07:07:39.317Z,6.05
2018-08-22T07:10:07.840Z,4.67
2018-08-22T07:12:36.548Z,5.67
2018-08-22T07:15:05.843Z,4.00
2018-08-22T07:17:34.677Z,4.10
2018-08-22T07:20:03.477Z,3.90
2018-08-22T07:22:32.191Z,4.22
2018-08-22T07:25:00.888Z,7.15
2018-08-22T07:27:29.590Z,10.55
2018-08-22T07:29:58.359Z,4.25
2018-08-22T07:32:26.832Z,3.15
2018-08-22T07:34:55.415Z,5.05
2018-08-22T07:37:24.148Z,3.10
2018-08-22T07:39:52.855Z,4.10
2018-08-22T07:42:21.580Z,2.42
2018-08-22T07:44:50.075Z,6.30
2018-08-22T07:47:18.480Z,3.85
2018-08-22T07:49:47.120Z,2.15
2018-08-22T07:52:15.825Z,4.65
2018-08-22T07:54:45.488Z,2.77
2018-08-22T07:57:15.841Z,3.35
2018-08-22T07:59:44.555Z,3.75
2018-08-22T08:02:13.257Z,4.80
2018-08-22T08:04:41.970Z,2.95
2018-08-22T08:07:10.716Z,4.53
2018-08-22T08:09:39.437Z,2.77
2018-08-22T08:12:08.151Z,3.92
2018-08-22T08:14:36.931Z,3.25
2018-08-22T08:17:05.681Z,3.65
2018-08-22T08:19:34.356Z,7.03
2018-08-22T08:22:03.098Z,3.85
2018-08-22T08:24:31.812Z,4.03
2018-08-22T08:27:00.516Z,7.35
2018-08-22T08:29:29.241Z,1.98
2018-08-22T08:31:57.999Z,6.22
2018-08-22T08:34:26.727Z,3.20
2018-08-22T08:36:55.494Z,4.78
2018-08-22T08:39:24.236Z,4.85
2018-08-22T08:41:52.731Z,5.37
2018-08-22T08:44:21.146Z,3.58
2018-08-22T08:46:49.551Z,3.25
2018-08-22T08:49:17.981Z,4.53
2018-08-22T08:51:52.293Z,4.60
2018-08-22T08:54:20.946Z,4.33
2018-08-22T08:56:49.390Z,4.12
2018-08-22T08:59:17.802Z,2.40
2018-08-22T09:01:46.411Z,2.22
2018-08-22T09:04:14.887Z,6.28
2018-08-22T09:06:43.304Z,2.10
2018-08-22T09:09:11.716Z,5.95
2018-08-22T09:11:45.222Z,4.05
2018-08-22T09:14:13.961Z,2.20
2018-08-22T09:16:42.493Z,2.05
2018-08-22T09:19:10.901Z,4.35
2018-08-22T09:21:39.308Z,2.90
2018-08-22T09:24:08.075Z,3.20
2018-08-22T09:26:36.734Z,3.40
2018-08-22T09:29:05.219Z,3.47
2018-08-22T09:31:33.642Z,6.15
2018-08-22T09:34:02.044Z,4.05
2018-08-22T09:36:30.689Z,1.60
2018-08-22T09:38:59.414Z,2.00
2018-08-22T09:41:27.904Z,2.37
2018-08-22T09:43:56.696Z,2.55
2018-08-22T09:46:25.387Z,5.62
2018-08-22T09:48:53.917Z,2.70
2018-08-22T09:51:22.311Z,2.60
2018-08-22T09:53:50.984Z,2.67
2018-08-22T09:56:19.719Z,4.37
2018-08-22T09:58:48.433Z,3.30
2018-08-22T10:01:27.526Z,5.55
2018-08-22T10:03:58.549Z,6.28
2018-08-22T10:06:28.706Z,5.25
2018-08-22T10:08:59.532Z,2.87
2018-08-22T10:11:28.281Z,4.12
2018-08-22T10:13:58.480Z,2.92
2018-08-22T10:16:28.166Z,1.72
2018-08-22T10:18:56.976Z,1.50
2018-08-22T10:21:26.140Z,2.60
2018-08-22T10:23:54.816Z,3.02
2018-08-22T10:26:23.427Z,4.85
2018-08-22T10:28:52.355Z,3.60
2018-08-22T10:31:21.074Z,3.98
2018-08-22T10:33:49.780Z,1.85
2018-08-22T10:36:18.566Z,2.72
2018-08-22T10:38:47.069Z,3.35
2018-08-22T10:41:15.704Z,6.30
2018-08-22T10:43:44.428Z,6.28
2018-08-22T10:46:12.912Z,3.92
2018-08-22T10:48:41.520Z,3.55
2018-08-22T10:51:15.072Z,3.90
2018-08-22T10:53:43.528Z,2.35
2018-08-22T10:56:11.927Z,5.47
2018-08-22T10:58:40.571Z,3.22
2018-08-22T11:01:09.069Z,2.72
2018-08-22T11:03:37.455Z,3.47
2018-08-22T11:06:05.867Z,3.35
2018-08-22T11:08:34.266Z,1.95
2018-08-22T11:11:02.716Z,2.35
2018-08-22T11:13:31.155Z,3.08
2018-08-22T11:15:59.837Z,2.77
2018-08-22T11:18:28.263Z,2.12
2018-08-22T11:21:02.355Z,2.77
2018-08-22T11:23:42.400Z,2.47
2018-08-22T11:26:16.571Z,3.75
2018-08-22T11:28:50.431Z,2.80
2018-08-22T11:31:25.180Z,4.10
2018-08-22T11:34:05.182Z,2.77
2018-08-22T11:36:33.841Z,2.27
2018-08-22T11:39:02.724Z,2.40
2018-08-22T11:41:31.388Z,3.42
2018-08-22T11:43:59.879Z,2.80
2018-08-22T11:46:28.505Z,2.05
2018-08-22T11:48:57.246Z,3.90
2018-08-22T11:51:25.763Z,2.72
2018-08-22T11:53:54.421Z,2.17
2018-08-22T11:56:22.941Z,2.87
2018-08-22T11:58:51.565Z,3.65
2018-08-22T12:01:20.059Z,3.65
2018-08-22T12:03:48.466Z,3.67
2018-08-22T12:06:16.874Z,2.90
2018-08-22T12:08:45.508Z,2.75
2018-08-22T12:11:14.035Z,1.98
2018-08-22T12:13:42.440Z,2.17
2018-08-22T12:16:11.161Z,1.65
2018-08-22T12:18:39.802Z,2.15
2018-08-22T12:21:08.318Z,4.28
2018-08-22T12:23:36.955Z,2.67
2018-08-22T12:26:05.479Z,1.55
2018-08-22T12:28:33.911Z,3.05
2018-08-22T12:31:02.577Z,1.92
2018-08-22T12:33:31.268Z,3.47
2018-08-22T12:35:59.787Z,3.62
2018-08-22T12:38:28.188Z,4.30
2018-08-22T12:40:56.746Z,2.40
2018-08-22T12:43:25.372Z,2.77
2018-08-22T12:45:53.870Z,1.40
2018-08-22T12:48:22.533Z,2.50
2018-08-22T12:50:51.039Z,2.37
2018-08-22T12:53:19.432Z,1.70
2018-08-22T12:55:47.864Z,2.12
2018-08-22T12:58:16.484Z,3.10
2018-08-22T13:00:45.012Z,1.87
2018-08-22T13:03:13.407Z,4.87
2018-08-22T13:05:42.099Z,2.60
2018-08-22T13:08:10.812Z,4.28
2018-08-22T13:10:39.311Z,6.65
2018-08-22T13:13:07.763Z,1.55
2018-08-22T13:15:36.375Z,3.17
2018-08-22T13:18:05.124Z,3.98
2018-08-22T13:20:33.539Z,2.85
2018-08-22T13:23:02.152Z,4.12
2018-08-22T13:25:30.674Z,1.65
2018-08-22T13:27:59.342Z,1.70
2018-08-22T13:30:28.093Z,1.37
2018-08-22T13:32:56.795Z,2.40
2018-08-22T13:35:25.319Z,2.67
2018-08-22T13:37:53.721Z,1.98
2018-08-22T13:40:22.410Z,2.17
2018-08-22T13:42:51.088Z,1.65
2018-08-22T13:45:20.631Z,2.22
2018-08-22T13:47:49.344Z,3.22
2018-08-22T13:50:18.043Z,2.27
2018-08-22T13:52:46.797Z,2.75
2018-08-22T13:55:15.279Z,1.52
2018-08-22T13:57:43.702Z,3.25
2018-08-22T14:00:12.132Z,2.62
2018-08-22T14:02:40.758Z,1.65
2018-08-22T14:05:09.259Z,1.42
2018-08-22T14:07:37.672Z,2.33
2018-08-22T14:10:06.121Z,2.90
2018-08-22T14:12:34.539Z,2.02
2018-08-22T14:15:03.245Z,3.08
2018-08-22T14:17:32.004Z,2.52
2018-08-22T14:20:00.753Z,2.08
2018-08-22T14:22:29.312Z,2.42
2018-08-22T14:24:57.891Z,2.08
2018-08-22T14:27:26.395Z,1.37
2018-08-22T14:29:54.801Z,2.80
2018-08-22T14:32:23.224Z,2.33
2018-08-22T14:34:51.728Z,1.92
2018-08-22T14:37:20.135Z,2.42
2018-08-22T14:39:48.535Z,2.77
2018-08-22T14:42:17.184Z,4.05
2018-08-22T14:44:46.036Z,4.17
2018-08-22T14:47:14.700Z,2.45
2018-08-22T14:49:43.233Z,3.08
2018-08-22T14:52:11.640Z,2.20
2018-08-22T14:54:40.091Z,2.75
2018-08-22T14:57:08.508Z,3.92
2018-08-22T14:59:37.134Z,3.80
2018-08-22T15:02:05.664Z,2.72
2018-08-22T15:04:34.094Z,5.87
2018-08-22T15:07:02.496Z,1.72
2018-08-22T15:09:30.911Z,2.33
2018-08-22T15:11:59.360Z,1.62
2018-08-22T15:14:27.777Z,3.37
2018-08-22T15:16:56.199Z,3.15
2018-08-22T15:19:24.648Z,2.95
2018-08-22T15:21:53.305Z,2.47
2018-08-22T15:24:21.997Z,3.77
2018-08-22T15:26:50.512Z,1.98
2018-08-22T15:29:19.153Z,3.72
2018-08-22T15:31:47.727Z,4.30
2018-08-22T15:34:16.401Z,2.65
2018-08-22T15:36:44.918Z,2.45
2018-08-22T15:39:13.533Z,3.42
2018-08-22T15:41:42.034Z,4.08
2018-08-22T15:44:10.655Z,5.33
2018-08-22T15:46:39.168Z,2.22
2018-08-22T15:49:07.818Z,3.92
2018-08-22T15:51:36.324Z,1.72
2018-08-22T15:54:09.795Z,5.05
2018-08-22T15:56:39.793Z,3.05
2018-08-22T15:59:08.815Z,3.35
2018-08-22T16:01:37.564Z,3.20
2018-08-22T16:04:06.133Z,3.60
2018-08-22T16:06:34.731Z,4.80
2018-08-22T16:09:04.029Z,3.55
2018-08-22T16:11:32.427Z,4.83
2018-08-22T16:14:00.837Z,24.87
2018-08-22T16:16:30.720Z,6.33
2018-08-22T16:18:59.222Z,3.72
2018-08-22T16:21:27.656Z,2.08
2018-08-22T16:23:56.070Z,4.08
2018-08-22T16:26:24.475Z,2.00
2018-08-22T16:28:57.471Z,2.12
2018-08-22T16:31:45.048Z,3.42
2018-08-22T16:34:14.329Z,2.27
2018-08-22T16:36:42.812Z,2.98
2018-08-22T16:39:11.416Z,3.00
2018-08-22T16:41:39.883Z,2.05
2018-08-22T16:44:08.308Z,2.55
2018-08-22T16:46:36.932Z,3.37
2018-08-22T16:49:05.665Z,2.98
2018-08-22T16:51:34.432Z,2.12
2018-08-22T16:54:08.220Z,2.87
2018-08-22T16:56:36.957Z,2.67
2018-08-22T16:59:16.039Z,4.20
2018-08-22T17:01:45.333Z,2.47
2018-08-22T17:04:13.739Z,3.33
2018-08-22T17:06:42.394Z,2.25
2018-08-22T17:09:11.413Z,2.00
2018-08-22T17:11:39.959Z,2.58
2018-08-22T17:14:08.600Z,2.67
2018-08-22T17:16:37.330Z,4.10
2018-08-22T17:19:06.292Z,2.20
2018-08-22T17:21:40.154Z,7.83
2018-08-22T17:24:08.673Z,5.75
2018-08-22T17:26:37.073Z,6.33
2018-08-22T17:29:05.693Z,5.83
2018-08-22T17:31:34.193Z,2.60
2018-08-22T17:34:03.417Z,2.47
2018-08-22T17:36:32.128Z,5.00
2018-08-22T17:39:01.411Z,5.55
2018-08-22T17:41:30.467Z,5.92
2018-08-22T17:44:01.688Z,3.30
2018-08-22T17:46:30.850Z,3.42
2018-08-22T17:48:59.279Z,3.72
2018-08-22T17:51:27.868Z,6.20
2018-08-22T17:53:56.497Z,5.53
2018-08-22T17:56:26.279Z,4.95
2018-08-22T17:58:55.999Z,6.33
2018-08-22T18:01:24.732Z,5.17
2018-08-22T18:03:55.183Z,6.22
2018-08-22T18:06:23.680Z,6.47
2018-08-22T18:08:52.045Z,6.20
2018-08-22T18:11:20.461Z,12.13
2018-08-22T18:13:49.156Z,6.97
2018-08-22T18:16:17.626Z,10.35
2018-08-22T18:18:46.027Z,13.58
2018-08-22T18:21:14.490Z,13.60
2018-08-22T18:23:48.191Z,7.83
2018-08-22T18:26:16.928Z,21.17
2018-08-22T18:28:45.428Z,10.50
2018-08-22T18:31:13.880Z,9.80
2018-08-22T18:33:49.180Z,16.70
2018-08-22T18:36:17.843Z,12.07
2018-08-22T18:38:55.288Z,16.97
2018-08-22T18:41:23.902Z,25.40
2018-08-22T18:43:52.608Z,17.23
2018-08-22T18:46:21.157Z,17.60
2018-08-22T18:48:49.545Z,11.43
2018-08-22T18:51:17.944Z,15.03
2018-08-22T18:53:46.356Z,20.75
2018-08-22T18:56:15.516Z,22.67
2018-08-22T18:58:43.902Z,14.75
2018-08-22T19:01:12.536Z,13.08
2018-08-22T19:03:41.256Z,9.18
2018-08-22T19:06:09.739Z,10.18
2018-08-22T19:08:38.983Z,7.33
2018-08-22T19:11:08.386Z,8.48
2018-08-22T19:13:36.848Z,8.73
2018-08-22T19:16:06.342Z,15.18
2018-08-22T19:18:34.785Z,7.17
2018-08-22T19:21:04.447Z,8.13
2018-08-22T19:23:33.276Z,10.05
2018-08-22T19:26:03.060Z,7.87
2018-08-22T19:28:33.438Z,7.50
2018-08-22T19:31:01.851Z,7.80
2018-08-22T19:33:30.252Z,5.97
2018-08-22T19:35:58.695Z,7.40
2018-08-22T19:38:28.256Z,5.37
2018-08-22T19:40:57.969Z,10.75
2018-08-22T19:43:26.408Z,10.15
2018-08-22T19:45:54.755Z,8.00
2018-08-22T19:48:24.346Z,5.60
2018-08-22T19:50:52.843Z,6.12
2018-08-22T19:53:21.267Z,10.08
2018-08-22T19:55:49.662Z,6.05
2018-08-22T19:58:28.544Z,8.13
2018-08-22T20:00:58.231Z,8.85
2018-08-22T20:03:31.352Z,11.88
2018-08-22T20:06:00.041Z,6.85
2018-08-22T20:08:34.102Z,5.83
2018-08-22T20:11:02.568Z,8.98
2018-08-22T20:13:42.636Z,6.23
2018-08-22T20:16:11.130Z,8.75
2018-08-22T20:18:39.513Z,5.87
2018-08-22T20:21:10.572Z,4.67
2018-08-22T20:23:39.134Z,7.73
2018-08-22T20:26:07.459Z,5.83
2018-08-22T20:28:38.143Z,8.63
2018-08-22T20:31:11.083Z,6.90
2018-08-22T20:33:39.765Z,8.13
2018-08-22T20:36:08.147Z,4.40
2018-08-22T20:38:36.532Z,7.00
2018-08-22T20:41:08.494Z,7.83
2018-08-22T20:43:36.986Z,8.87
2018-08-22T20:46:05.363Z,7.08
2018-08-22T20:48:33.770Z,8.77
2018-08-22T20:51:02.165Z,7.47
2018-08-22T20:53:30.764Z,11.03
2018-08-22T20:55:59.523Z,10.10
2018-08-22T20:58:31.040Z,7.77
2018-08-22T21:00:59.576Z,7.20
2018-08-22T21:03:28.013Z,6.27
2018-08-22T21:05:56.400Z,3.83
2018-08-22T21:08:25.060Z,5.67
2018-08-22T21:10:53.512Z,5.20
2018-08-22T21:13:28.518Z,5.83
2018-08-22T21:15:57.224Z,3.93
2018-08-22T21:18:25.648Z,5.93
2018-08-22T21:20:54.082Z,4.07
2018-08-22T21:23:22.497Z,4.67
2018-08-22T21:25:50.898Z,5.47
2018-08-22T21:28:23.235Z,3.30
2018-08-22T21:30:58.524Z,2.60
2018-08-22T21:33:27.694Z,5.37
2018-08-22T21:35:56.136Z,4.17
2018-08-22T21:38:24.524Z,4.37
2018-08-22T21:40:53.138Z,4.53
2018-08-22T21:43:22.042Z,3.37
2018-08-22T21:45:51.046Z,5.80
2018-08-22T21:48:21.830Z,4.07
2018-08-22T21:50:50.211Z,4.73
2018-08-22T21:53:18.612Z,6.53
2018-08-22T21:55:48.321Z,3.87
2018-08-22T21:58:16.795Z,5.03
2018-08-22T22:00:45.189Z,5.67
2018-08-22T22:03:14.219Z,4.57
2018-08-22T22:05:54.823Z,4.50
2018-08-22T22:08:23.211Z,2.90
2018-08-22T22:10:56.203Z,5.47
2018-08-22T22:13:24.663Z,4.53
2018-08-22T22:15:53.495Z,3.80
2018-08-22T22:18:21.892Z,5.73
2018-08-22T22:20:50.867Z,8.13
2018-08-22T22:23:19.248Z,2.30
2018-08-22T22:25:47.640Z,5.90
2018-08-22T22:28:16.338Z,2.90
2018-08-22T22:30:44.730Z,6.10
2018-08-22T22:33:13.128Z,2.90
2018-08-22T22:35:41.523Z,5.17
2018-08-22T22:38:10.819Z,4.60
2018-08-22T22:40:39.594Z,4.33
2018-08-22T22:43:08.431Z,3.60
2018-08-22T22:45:36.816Z,5.97
2018-08-22T22:48:05.207Z,3.90
2018-08-22T22:50:33.618Z,3.57
2018-08-22T22:53:02.907Z,2.87
2018-08-22T22:55:31.335Z,3.00
2018-08-22T22:57:59.805Z,2.70
2018-08-22T23:00:28.911Z,3.63
2018-08-22T23:03:11.883Z,6.43
2018-08-22T23:05:40.269Z,4.87
2018-08-22T23:08:08.657Z,3.73
2018-08-22T23:10:37.050Z,5.80
2018-08-22T23:13:05.474Z,4.07
2018-08-22T23:15:33.836Z,2.23
2018-08-22T23:18:02.423Z,5.17
2018-08-22T23:20:35.028Z,4.77
2018-08-22T23:23:05.000Z,3.07
2018-08-22T23:25:33.416Z,5.93
2018-08-22T23:28:01.796Z,5.00
2018-08-22T23:30:36.229Z,3.10
2018-08-22T23:33:05.296Z,2.73
2018-08-22T23:35:34.754Z,4.47
2018-08-22T23:38:04.282Z,3.27
2018-08-22T23:40:33.772Z,3.83
2018-08-22T23:43:02.180Z,2.50
2018-08-22T23:45:30.604Z,3.33
2018-08-22T23:47:59.205Z,5.43
2018-08-22T23:51:01.638Z,2.30
2018-08-22T23:53:32.307Z,1.77
2018-08-22T23:56:09.663Z,7.47
2018-08-22T23:58:38.326Z,4.77
